Terminal Aerodrome Forecast
Issued by NWS Cleveland, OH

Home | Current Version | Previous Version | Text Only | Print | Product List | Glossary Off
Versions: 1 2 3 4 5 6 7 8 9 10 11 12 13 14 15 16 17 18 19 20 21 22 23

000
FTUS41 KCLE 260313 AAA
TAFCLE
TAF AMD
KCLE 260313Z 2603/2706 12006KT P6SM SCT250
     FM261000 17008KT P6SM VCSH OVC100
     FM261500 25012KT 5SM -SHRA OVC030
     FM261900 27014G24KT P6SM BKN070=

USA.gov is the U.S. government's official web portal to all federal, state and local government web resources and services.